createdAt,value
2018-12-29T00:02:22.657Z,34.47
2018-12-29T00:04:51.877Z,33.23
2018-12-29T00:07:20.756Z,33.90
2018-12-29T00:09:49.717Z,34.30
2018-12-29T00:12:18.655Z,34.37
2018-12-29T00:14:54.812Z,35.43
2018-12-29T00:17:18.202Z,36.70
2018-12-29T00:19:47.153Z,36.37
2018-12-29T00:22:16.369Z,37.47
2018-12-29T00:24:45.294Z,35.33
2018-12-29T00:27:14.285Z,38.23
2018-12-29T00:29:43.578Z,38.40
2018-12-29T00:32:13.055Z,37.90
2018-12-29T00:34:41.995Z,37.40
2018-12-29T00:37:10.935Z,36.80
2018-12-29T00:39:39.861Z,34.13
2018-12-29T00:42:09.045Z,36.07
2018-12-29T00:44:38.770Z,34.63
2018-12-29T00:47:07.801Z,33.00
2018-12-29T00:49:36.725Z,33.80
2018-12-29T00:52:05.629Z,32.10
2018-12-29T00:54:34.581Z,28.87
2018-12-29T00:57:03.515Z,28.93
2018-12-29T00:59:32.701Z,29.10
2018-12-29T01:02:01.655Z,30.70
2018-12-29T01:04:30.565Z,30.90
2018-12-29T01:06:59.438Z,29.67
2018-12-29T01:09:28.426Z,29.40
2018-12-29T01:11:57.361Z,29.20
2018-12-29T01:14:26.378Z,30.63
2018-12-29T01:16:55.351Z,29.03
2018-12-29T01:19:24.297Z,30.97
2018-12-29T01:21:53.243Z,25.73
2018-12-29T01:24:22.165Z,29.67
2018-12-29T01:26:51.111Z,28.07
2018-12-29T01:29:20.068Z,29.47
2018-12-29T01:31:49.095Z,26.93
2018-12-29T01:34:18.053Z,26.93
2018-12-29T01:36:47.054Z,28.00
2018-12-29T01:39:15.966Z,29.00
2018-12-29T01:41:44.808Z,29.73
2018-12-29T01:44:16.596Z,30.40
2018-12-29T01:46:45.528Z,31.43
2018-12-29T01:49:14.515Z,32.17
2018-12-29T01:51:43.509Z,31.37
2018-12-29T01:54:12.509Z,31.20
2018-12-29T01:56:41.763Z,30.53
2018-12-29T01:59:11.026Z,31.83
2018-12-29T02:01:39.938Z,30.87
2018-12-29T02:04:08.838Z,32.20
2018-12-29T02:06:37.809Z,32.80
2018-12-29T02:09:07.066Z,30.77
2018-12-29T02:11:35.977Z,32.37
2018-12-29T02:14:05.213Z,32.37
2018-12-29T02:16:34.409Z,34.23
2018-12-29T02:19:03.365Z,32.77
2018-12-29T02:21:32.293Z,32.37
2018-12-29T02:24:01.247Z,34.87
2018-12-29T02:26:30.377Z,34.03
2018-12-29T02:28:59.414Z,30.70
2018-12-29T02:31:28.412Z,36.67
2018-12-29T02:33:57.485Z,33.37
2018-12-29T02:36:26.788Z,38.27
2018-12-29T02:38:55.779Z,33.80
2018-12-29T02:41:25.367Z,35.50
2018-12-29T02:43:54.409Z,34.60
2018-12-29T02:46:23.361Z,33.83
2018-12-29T02:48:52.519Z,35.63
2018-12-29T02:51:21.739Z,36.17
2018-12-29T02:53:50.691Z,35.43
2018-12-29T02:56:19.616Z,34.17
2018-12-29T02:58:48.537Z,34.63
2018-12-29T03:01:17.486Z,35.87
2018-12-29T03:03:46.441Z,33.87
2018-12-29T03:06:15.296Z,35.40
2018-12-29T03:08:44.228Z,34.77
2018-12-29T03:11:13.451Z,34.90
2018-12-29T03:13:42.394Z,35.83
2018-12-29T03:16:11.623Z,35.13
2018-12-29T03:18:40.620Z,33.23
2018-12-29T03:21:09.629Z,38.63
2018-12-29T03:23:38.615Z,34.33
2018-12-29T03:26:07.572Z,33.87
2018-12-29T03:28:36.507Z,31.30
2018-12-29T03:31:05.580Z,32.90
2018-12-29T03:33:34.539Z,34.73
2018-12-29T03:36:03.513Z,32.00
2018-12-29T03:38:32.437Z,33.53
2018-12-29T03:41:01.378Z,33.97
2018-12-29T03:43:30.390Z,31.40
2018-12-29T03:45:59.661Z,32.83
2018-12-29T03:48:29.115Z,34.33
2018-12-29T03:50:58.131Z,31.67
2018-12-29T03:53:27.222Z,36.60
2018-12-29T03:55:56.182Z,34.43
2018-12-29T03:58:25.119Z,32.13
2018-12-29T04:00:54.055Z,32.13
2018-12-29T04:03:23.352Z,31.80
2018-12-29T04:05:52.325Z,33.20
2018-12-29T04:08:21.250Z,29.27
2018-12-29T04:10:50.309Z,31.60
2018-12-29T04:13:19.617Z,31.93
2018-12-29T04:15:48.477Z,32.93
2018-12-29T04:18:17.770Z,34.37
2018-12-29T04:20:48.983Z,34.77
2018-12-29T04:23:20.310Z,36.73
2018-12-29T04:25:49.531Z,34.57
2018-12-29T04:28:18.478Z,35.73
2018-12-29T04:30:47.394Z,36.00
2018-12-29T04:33:16.399Z,35.47
2018-12-29T04:35:45.334Z,32.97
2018-12-29T04:38:18.835Z,40.00
2018-12-29T04:40:47.758Z,34.50
2018-12-29T04:43:16.731Z,34.97
2018-12-29T04:45:45.658Z,33.47
2018-12-29T04:48:14.635Z,37.40
2018-12-29T04:50:43.644Z,34.60
2018-12-29T04:53:12.591Z,35.17
2018-12-29T04:55:41.551Z,36.90
2018-12-29T04:58:10.490Z,37.30
2018-12-29T05:00:39.428Z,35.30
2018-12-29T05:03:08.589Z,33.37
2018-12-29T05:05:37.513Z,35.93
2018-12-29T05:08:06.442Z,34.50
2018-12-29T05:10:35.347Z,33.10
2018-12-29T05:13:04.287Z,37.70
2018-12-29T05:15:33.126Z,37.23
2018-12-29T05:18:02.870Z,33.10
2018-12-29T05:20:31.790Z,35.67
2018-12-29T05:23:00.670Z,39.40
2018-12-29T05:25:29.895Z,34.83
2018-12-29T05:27:58.842Z,38.47
2018-12-29T05:30:27.757Z,40.63
2018-12-29T05:32:56.777Z,40.90
2018-12-29T05:35:25.706Z,37.57
2018-12-29T05:37:54.665Z,36.30
2018-12-29T05:40:23.669Z,37.40
2018-12-29T05:42:52.633Z,39.40
2018-12-29T05:45:21.587Z,35.67
2018-12-29T05:47:50.810Z,39.67
2018-12-29T05:50:19.784Z,34.67
2018-12-29T05:52:49.023Z,36.77
2018-12-29T05:55:18.011Z,36.40
2018-12-29T05:57:46.943Z,39.17
2018-12-29T06:00:15.894Z,38.13
2018-12-29T06:02:44.786Z,42.57
2018-12-29T06:05:13.722Z,40.73
2018-12-29T06:07:42.656Z,41.70
2018-12-29T06:10:11.603Z,39.97
2018-12-29T06:12:40.545Z,33.03
2018-12-29T06:15:09.882Z,36.47
2018-12-29T06:17:38.804Z,36.37
2018-12-29T06:20:07.850Z,37.93
2018-12-29T06:22:36.851Z,38.70
2018-12-29T06:25:06.022Z,36.13
2018-12-29T06:27:35.008Z,39.27
2018-12-29T06:30:04.128Z,39.00
2018-12-29T06:32:33.081Z,39.40
2018-12-29T06:35:02.018Z,41.67
2018-12-29T06:37:30.957Z,42.67
2018-12-29T06:39:59.932Z,37.37
2018-12-29T06:42:28.878Z,40.83
2018-12-29T06:44:57.806Z,36.33
2018-12-29T06:47:27.816Z,40.33
2018-12-29T06:49:56.732Z,37.10
2018-12-29T06:52:25.944Z,38.40
2018-12-29T06:54:55.154Z,38.03
2018-12-29T06:57:24.134Z,39.40
2018-12-29T06:59:53.058Z,40.10
2018-12-29T07:02:22.051Z,36.60
2018-12-29T07:04:50.962Z,39.20
2018-12-29T07:07:19.838Z,42.17
2018-12-29T07:09:48.761Z,41.33
2018-12-29T07:12:17.710Z,46.73
2018-12-29T07:14:46.657Z,42.63
2018-12-29T07:17:15.872Z,41.60
2018-12-29T07:19:44.857Z,43.10
2018-12-29T07:22:13.783Z,41.47
2018-12-29T07:24:42.773Z,40.90
2018-12-29T07:27:11.714Z,41.77
2018-12-29T07:29:40.637Z,44.90
2018-12-29T07:32:09.491Z,45.17
2018-12-29T07:34:38.401Z,45.13
2018-12-29T07:37:07.652Z,45.93
2018-12-29T07:39:36.582Z,42.63
2018-12-29T07:42:05.441Z,45.83
2018-12-29T07:44:34.702Z,42.77
2018-12-29T07:47:03.728Z,45.97
2018-12-29T07:49:32.659Z,44.97
2018-12-29T07:52:01.582Z,44.77
2018-12-29T07:54:30.534Z,50.17
2018-12-29T07:56:59.469Z,48.77
2018-12-29T07:59:28.331Z,42.57
2018-12-29T08:01:59.610Z,41.43
2018-12-29T08:04:29.046Z,39.20
2018-12-29T08:06:57.998Z,40.33
2018-12-29T08:09:27.014Z,33.67
2018-12-29T08:11:55.973Z,36.13
2018-12-29T08:14:24.927Z,37.83
2018-12-29T08:16:56.974Z,36.37
2018-12-29T08:19:24.563Z,38.33
2018-12-29T08:21:54.741Z,35.47
2018-12-29T08:24:24.035Z,37.47
2018-12-29T08:26:52.962Z,36.57
2018-12-29T08:29:22.467Z,37.67
2018-12-29T08:31:51.384Z,37.97
2018-12-29T08:34:20.342Z,37.63
2018-12-29T08:36:49.378Z,33.83
2018-12-29T08:39:19.059Z,39.00
2018-12-29T08:41:49.258Z,36.93
2018-12-29T08:44:18.199Z,41.40
2018-12-29T08:46:47.133Z,43.17
2018-12-29T08:49:16.388Z,35.07
2018-12-29T08:51:45.370Z,38.83
2018-12-29T08:54:14.422Z,38.97
2018-12-29T08:56:46.209Z,40.53
2018-12-29T08:59:15.272Z,37.93
2018-12-29T09:01:44.525Z,41.77
2018-12-29T09:04:13.535Z,39.87
2018-12-29T09:06:42.484Z,39.27
2018-12-29T09:09:11.519Z,42.97
2018-12-29T09:11:40.965Z,39.67
2018-12-29T09:14:09.905Z,40.13
2018-12-29T09:16:38.885Z,41.60
2018-12-29T09:19:07.894Z,44.83
2018-12-29T09:21:36.847Z,45.83
2018-12-29T09:24:05.858Z,40.43
2018-12-29T09:26:42.768Z,44.13
2018-12-29T09:29:11.729Z,40.73
2018-12-29T09:31:40.665Z,42.17
2018-12-29T09:34:09.594Z,43.63
2018-12-29T09:36:38.550Z,45.90
2018-12-29T09:39:08.020Z,43.90
2018-12-29T09:41:36.983Z,46.47
2018-12-29T09:44:06.293Z,44.53
2018-12-29T09:46:35.322Z,44.03
2018-12-29T09:49:04.262Z,43.27
2018-12-29T09:51:33.247Z,45.83
2018-12-29T09:54:02.213Z,43.10
2018-12-29T09:56:31.169Z,44.43
2018-12-29T09:59:00.224Z,42.87
2018-12-29T10:01:29.252Z,40.77
2018-12-29T10:03:58.181Z,41.03
2018-12-29T10:06:27.033Z,43.57
2018-12-29T10:08:55.898Z,38.33
2018-12-29T10:11:24.825Z,41.37
2018-12-29T10:13:53.710Z,40.40
2018-12-29T10:16:22.648Z,43.80
2018-12-29T10:18:54.731Z,39.77
2018-12-29T10:21:23.676Z,42.17
2018-12-29T10:23:52.637Z,39.53
2018-12-29T10:26:21.641Z,35.30
2018-12-29T10:28:51.314Z,43.20
2018-12-29T10:31:20.213Z,41.27
2018-12-29T10:33:49.163Z,37.63
2018-12-29T10:36:18.247Z,36.40
2018-12-29T10:38:47.253Z,33.57
2018-12-29T10:41:16.397Z,32.90
2018-12-29T10:43:45.385Z,32.67
2018-12-29T10:46:14.400Z,35.43
2018-12-29T10:48:43.358Z,32.83
2018-12-29T10:51:12.283Z,35.20
2018-12-29T10:53:41.286Z,34.47
2018-12-29T10:56:10.152Z,30.77
2018-12-29T10:58:39.426Z,33.73
2018-12-29T11:01:08.355Z,29.07
2018-12-29T11:03:37.298Z,32.37
2018-12-29T11:06:06.414Z,33.13
2018-12-29T11:08:35.408Z,28.17
2018-12-29T11:11:04.370Z,28.37
2018-12-29T11:13:33.298Z,27.33
2018-12-29T11:16:02.312Z,34.13
2018-12-29T11:18:31.286Z,29.03
2018-12-29T11:21:00.226Z,31.90
2018-12-29T11:23:29.409Z,27.57
2018-12-29T11:25:58.357Z,38.80
2018-12-29T11:28:27.283Z,31.53
2018-12-29T11:30:56.260Z,31.63
2018-12-29T11:33:25.197Z,41.13
2018-12-29T11:35:54.165Z,30.23
2018-12-29T11:38:23.134Z,25.93
2018-12-29T11:40:52.124Z,28.27
2018-12-29T11:43:21.068Z,30.00
2018-12-29T11:45:50.038Z,27.77
2018-12-29T11:48:18.994Z,28.10
2018-12-29T11:50:48.221Z,30.40
2018-12-29T11:53:17.222Z,28.80
2018-12-29T11:55:46.578Z,29.13
2018-12-29T11:58:15.787Z,45.23
2018-12-29T12:00:45.155Z,140.03
2018-12-29T12:03:14.104Z,27.17
2018-12-29T12:05:43.047Z,32.73
2018-12-29T12:08:14.293Z,27.50
2018-12-29T12:10:43.483Z,27.70
2018-12-29T12:13:13.468Z,28.53
2018-12-29T12:15:42.598Z,27.53
2018-12-29T12:18:11.779Z,29.30
2018-12-29T12:20:40.731Z,26.53
2018-12-29T12:23:10.112Z,28.23
2018-12-29T12:25:39.146Z,27.33
2018-12-29T12:28:08.948Z,26.47
2018-12-29T12:30:37.901Z,26.97
2018-12-29T12:33:08.004Z,26.47
2018-12-29T12:35:37.018Z,25.93
2018-12-29T12:38:06.785Z,23.60
2018-12-29T12:40:35.750Z,24.73
2018-12-29T12:43:04.827Z,31.50
2018-12-29T12:45:34.198Z,32.17
2018-12-29T12:48:05.409Z,23.80
2018-12-29T12:50:33.822Z,23.77
2018-12-29T12:53:03.115Z,22.37
2018-12-29T12:55:32.819Z,22.77
2018-12-29T12:58:02.403Z,24.20
2018-12-29T13:00:35.267Z,23.03
2018-12-29T13:03:05.802Z,22.50
2018-12-29T13:05:34.853Z,21.90
2018-12-29T13:08:04.505Z,23.33
2018-12-29T13:10:33.752Z,25.00
2018-12-29T13:13:03.842Z,23.77
2018-12-29T13:15:32.738Z,22.83
2018-12-29T13:18:01.710Z,23.10
2018-12-29T13:20:30.657Z,25.20
2018-12-29T13:23:00.130Z,24.33
2018-12-29T13:25:29.068Z,23.50
2018-12-29T13:27:58.018Z,23.97
2018-12-29T13:30:27.156Z,22.13
2018-12-29T13:32:56.243Z,26.60
2018-12-29T13:35:25.304Z,22.23
2018-12-29T13:37:54.262Z,20.73
2018-12-29T13:40:23.318Z,22.40
2018-12-29T13:42:52.478Z,24.00
2018-12-29T13:45:21.412Z,24.40
2018-12-29T13:47:52.502Z,19.83
2018-12-29T13:50:22.164Z,20.80
2018-12-29T13:52:52.791Z,20.20
2018-12-29T13:55:22.385Z,21.87
2018-12-29T13:57:51.649Z,24.00
2018-12-29T14:00:20.587Z,20.47
2018-12-29T14:02:50.133Z,23.10
2018-12-29T14:05:19.072Z,22.93
2018-12-29T14:07:48.393Z,26.13
2018-12-29T14:10:17.359Z,22.73
2018-12-29T14:12:46.306Z,23.47
2018-12-29T14:15:15.245Z,24.77
2018-12-29T14:17:44.209Z,24.07
2018-12-29T14:20:13.243Z,22.13
2018-12-29T14:22:42.251Z,27.17
2018-12-29T14:25:11.211Z,22.73
2018-12-29T14:27:40.133Z,26.33
2018-12-29T14:30:09.386Z,27.00
2018-12-29T14:32:38.324Z,22.83
2018-12-29T14:35:07.345Z,24.80
2018-12-29T14:37:36.303Z,21.67
2018-12-29T14:40:05.542Z,27.83
2018-12-29T14:42:34.677Z,35.00
2018-12-29T14:45:03.817Z,26.93
2018-12-29T14:47:33.177Z,23.17
2018-12-29T14:50:02.160Z,22.83
2018-12-29T14:52:31.175Z,22.27
2018-12-29T14:55:00.169Z,19.20
2018-12-29T14:57:29.049Z,21.47
2018-12-29T14:59:58.424Z,18.23
2018-12-29T15:02:27.409Z,21.23
2018-12-29T15:04:56.401Z,21.33
2018-12-29T15:07:25.442Z,19.40
2018-12-29T15:09:54.588Z,19.27
2018-12-29T15:12:23.681Z,19.30
2018-12-29T15:14:53.262Z,20.23
2018-12-29T15:17:22.275Z,20.87
2018-12-29T15:19:51.359Z,23.00
2018-12-29T15:22:20.326Z,24.97
2018-12-29T15:24:49.575Z,22.27
2018-12-29T15:27:18.590Z,24.37
2018-12-29T15:29:47.534Z,22.30
2018-12-29T15:32:17.230Z,23.33
2018-12-29T15:34:46.311Z,22.97
2018-12-29T15:37:15.377Z,23.77
2018-12-29T15:39:44.323Z,24.43
2018-12-29T15:42:13.515Z,25.93
2018-12-29T15:44:42.459Z,21.87
2018-12-29T15:47:11.523Z,23.53
2018-12-29T15:49:40.457Z,20.77
2018-12-29T15:52:09.506Z,31.93
2018-12-29T15:54:39.027Z,19.90
2018-12-29T15:57:07.993Z,18.87
2018-12-29T15:59:37.124Z,18.90
2018-12-29T16:02:06.152Z,17.10
2018-12-29T16:04:35.670Z,21.43
2018-12-29T16:07:04.871Z,18.63
2018-12-29T16:09:35.034Z,18.83
2018-12-29T16:12:05.142Z,17.23
2018-12-29T16:14:35.481Z,17.40
2018-12-29T16:17:05.044Z,16.40
2018-12-29T16:19:34.388Z,17.97
2018-12-29T16:22:03.505Z,17.30
2018-12-29T16:24:33.150Z,17.87
2018-12-29T16:27:02.409Z,15.77
2018-12-29T16:29:31.327Z,16.47
2018-12-29T16:32:00.370Z,16.83
2018-12-29T16:34:29.293Z,16.57
2018-12-29T16:36:58.519Z,17.13
2018-12-29T16:39:28.024Z,17.20
2018-12-29T16:41:57.033Z,15.10
2018-12-29T16:44:28.363Z,15.57
2018-12-29T16:46:57.290Z,16.07
2018-12-29T16:49:27.059Z,16.60
2018-12-29T16:51:56.307Z,17.17
2018-12-29T16:54:25.616Z,17.27
2018-12-29T16:56:54.641Z,14.73
2018-12-29T16:59:24.090Z,16.07
2018-12-29T17:01:53.021Z,21.03
2018-12-29T17:04:22.061Z,18.67
2018-12-29T17:06:51.013Z,16.33
2018-12-29T17:09:20.623Z,13.43
2018-12-29T17:11:52.544Z,15.23
2018-12-29T17:14:20.225Z,13.97
2018-12-29T17:16:49.261Z,15.17
2018-12-29T17:19:18.503Z,14.37
2018-12-29T17:21:47.485Z,12.83
2018-12-29T17:24:16.426Z,14.73
2018-12-29T17:26:45.358Z,13.73
2018-12-29T17:29:14.638Z,15.10
2018-12-29T17:31:43.575Z,14.80
2018-12-29T17:34:12.554Z,14.83
2018-12-29T17:36:41.947Z,15.93
2018-12-29T17:39:11.349Z,15.90
2018-12-29T17:41:40.274Z,16.77
2018-12-29T17:44:09.272Z,15.17
2018-12-29T17:46:38.258Z,15.10
2018-12-29T17:49:07.705Z,16.37
2018-12-29T17:51:36.636Z,15.93
2018-12-29T17:54:05.668Z,17.27
2018-12-29T17:56:35.297Z,17.37
2018-12-29T17:59:04.546Z,17.63
2018-12-29T18:01:33.457Z,18.30
2018-12-29T18:04:02.403Z,15.53
2018-12-29T18:06:31.325Z,16.40
2018-12-29T18:09:00.475Z,16.93
2018-12-29T18:11:29.466Z,20.50
2018-12-29T18:13:58.494Z,17.87
2018-12-29T18:16:27.517Z,17.80
2018-12-29T18:18:56.478Z,19.67
2018-12-29T18:21:25.812Z,18.83
2018-12-29T18:23:55.070Z,18.43
2018-12-29T18:26:24.182Z,19.33
2018-12-29T18:28:54.503Z,17.93
2018-12-29T18:31:23.501Z,20.20
2018-12-29T18:33:52.887Z,19.17
2018-12-29T18:36:21.824Z,19.20
2018-12-29T18:38:50.873Z,23.33
2018-12-29T18:41:20.119Z,20.17
2018-12-29T18:43:49.053Z,19.17
2018-12-29T18:46:18.066Z,20.53
2018-12-29T18:48:47.317Z,19.77
2018-12-29T18:51:16.368Z,20.87
2018-12-29T18:53:46.018Z,19.47
2018-12-29T18:56:14.971Z,18.10
2018-12-29T18:58:43.925Z,19.07
2018-12-29T19:01:14.271Z,20.37
2018-12-29T19:03:43.511Z,20.17
2018-12-29T19:06:12.458Z,20.23
2018-12-29T19:08:41.777Z,18.67
2018-12-29T19:11:10.730Z,22.40
2018-12-29T19:13:39.664Z,17.77
2018-12-29T19:16:08.877Z,18.80
2018-12-29T19:18:41.410Z,19.50
2018-12-29T19:21:08.458Z,18.77
2018-12-29T19:23:37.879Z,17.63
2018-12-29T19:26:08.318Z,22.77
2018-12-29T19:28:37.445Z,22.83
2018-12-29T19:31:06.385Z,21.80
2018-12-29T19:33:35.615Z,21.00
2018-12-29T19:36:04.643Z,21.50
2018-12-29T19:38:33.605Z,21.07
2018-12-29T19:41:02.586Z,20.00
2018-12-29T19:43:32.060Z,22.37
2018-12-29T19:46:01.565Z,20.23
2018-12-29T19:48:30.485Z,20.87
2018-12-29T19:50:59.427Z,21.60
2018-12-29T19:53:28.916Z,20.43
2018-12-29T19:55:57.875Z,21.07
2018-12-29T19:58:26.913Z,22.37
2018-12-29T20:00:55.851Z,21.07
2018-12-29T20:03:24.786Z,19.60
2018-12-29T20:05:53.901Z,20.60
2018-12-29T20:08:22.849Z,22.57
2018-12-29T20:10:52.479Z,20.77
2018-12-29T20:13:21.430Z,20.90
2018-12-29T20:15:50.353Z,19.47
2018-12-29T20:18:19.598Z,22.17
2018-12-29T20:20:48.532Z,20.93
2018-12-29T20:23:17.750Z,20.80
2018-12-29T20:25:47.019Z,20.80
2018-12-29T20:28:15.946Z,21.60
2018-12-29T20:30:45.083Z,22.00
2018-12-29T20:33:15.469Z,20.17
2018-12-29T20:35:44.471Z,24.43
2018-12-29T20:38:13.486Z,20.83
2018-12-29T20:40:42.416Z,19.77
2018-12-29T20:43:11.992Z,19.90
2018-12-29T20:45:40.986Z,20.20
2018-12-29T20:48:10.448Z,20.73
2018-12-29T20:50:39.375Z,20.83
2018-12-29T20:53:08.595Z,17.80
2018-12-29T20:55:39.599Z,17.00
2018-12-29T20:58:08.899Z,18.53
2018-12-29T21:00:38.475Z,18.27
2018-12-29T21:03:07.482Z,17.00
2018-12-29T21:05:36.415Z,16.20
2018-12-29T21:08:05.941Z,15.20
2018-12-29T21:10:34.954Z,15.43
2018-12-29T21:13:04.273Z,14.10
2018-12-29T21:15:33.218Z,16.93
2018-12-29T21:18:02.145Z,14.10
2018-12-29T21:20:31.387Z,13.43
2018-12-29T21:23:00.306Z,14.50
2018-12-29T21:25:29.241Z,14.90
2018-12-29T21:27:58.550Z,13.60
2018-12-29T21:30:27.880Z,14.03
2018-12-29T21:32:56.802Z,14.80
2018-12-29T21:35:25.855Z,13.60
2018-12-29T21:37:55.330Z,12.17
2018-12-29T21:40:24.636Z,13.47
2018-12-29T21:42:54.403Z,12.57
2018-12-29T21:45:24.167Z,12.47
2018-12-29T21:47:53.175Z,12.70
2018-12-29T21:50:25.666Z,12.27
2018-12-29T21:52:53.139Z,13.63
2018-12-29T21:55:22.095Z,15.43
2018-12-29T21:57:51.344Z,13.30
2018-12-29T22:00:20.590Z,14.00
2018-12-29T22:02:49.808Z,14.73
2018-12-29T22:05:18.766Z,14.17
2018-12-29T22:07:47.777Z,14.87
2018-12-29T22:10:16.764Z,15.20
2018-12-29T22:12:46.025Z,13.90
2018-12-29T22:15:15.244Z,14.93
2018-12-29T22:17:44.179Z,16.13
2018-12-29T22:20:13.641Z,15.70
2018-12-29T22:22:42.639Z,14.13
2018-12-29T22:25:11.864Z,14.50
2018-12-29T22:27:41.077Z,15.03
2018-12-29T22:30:10.166Z,13.87
2018-12-29T22:32:39.982Z,15.30
2018-12-29T22:35:08.990Z,14.73
2018-12-29T22:37:38.295Z,16.00
2018-12-29T22:40:07.381Z,17.17
2018-12-29T22:42:36.336Z,14.90
2018-12-29T22:45:05.502Z,15.37
2018-12-29T22:47:37.655Z,15.07
2018-12-29T22:50:07.702Z,14.57
2018-12-29T22:52:36.713Z,15.23
2018-12-29T22:55:08.349Z,13.80
2018-12-29T22:57:38.170Z,14.43
2018-12-29T23:00:10.124Z,14.63
2018-12-29T23:02:39.165Z,15.30
2018-12-29T23:05:08.214Z,18.07
2018-12-29T23:07:37.225Z,15.97
2018-12-29T23:10:06.241Z,14.00
2018-12-29T23:12:35.226Z,12.67
2018-12-29T23:15:04.766Z,13.73
2018-12-29T23:17:33.719Z,13.67
2018-12-29T23:20:02.744Z,15.47
2018-12-29T23:22:32.127Z,16.07
2018-12-29T23:25:01.098Z,15.13
2018-12-29T23:27:31.122Z,15.53
2018-12-29T23:30:00.677Z,15.80
2018-12-29T23:32:29.618Z,14.53
2018-12-29T23:34:58.541Z,14.23
2018-12-29T23:37:27.794Z,16.70
2018-12-29T23:39:57.225Z,13.97
2018-12-29T23:42:26.514Z,15.63
2018-12-29T23:44:55.480Z,16.27
2018-12-29T23:47:24.821Z,13.03
2018-12-29T23:49:53.774Z,16.47
2018-12-29T23:52:22.986Z,14.60
2018-12-29T23:54:51.917Z,14.80
2018-12-29T23:57:20.862Z,15.20
2018-12-29T23:59:49.817Z,15.57
